sensor_id;sensor_type;location;lat;lon;timestamp;P1;durP1;ratioP1;P2;durP2;ratioP2
47239;SDS011;32978;53.586;10.052;2022-08-21T00:03:04;10.82;;;5.13;;
47239;SDS011;32978;53.586;10.052;2022-08-21T00:08:01;12.77;;;6.93;;
47239;SDS011;32978;53.586;10.052;2022-08-21T00:12:57;10.50;;;5.80;;
47239;SDS011;32978;53.586;10.052;2022-08-21T00:17:54;11.68;;;5.65;;
47239;SDS011;32978;53.586;10.052;2022-08-21T00:22:50;12.75;;;6.38;;
47239;SDS011;32978;53.586;10.052;2022-08-21T00:27:47;11.20;;;7.18;;
47239;SDS011;32978;53.586;10.052;2022-08-21T00:32:44;17.48;;;7.07;;
47239;SDS011;32978;53.586;10.052;2022-08-21T00:37:40;14.57;;;6.72;;
47239;SDS011;32978;53.586;10.052;2022-08-21T00:42:37;13.52;;;7.35;;
47239;SDS011;32978;53.586;10.052;2022-08-21T00:47:33;12.18;;;6.47;;
47239;SDS011;32978;53.586;10.052;2022-08-21T00:52:30;14.63;;;8.27;;
47239;SDS011;32978;53.586;10.052;2022-08-21T00:57:33;10.95;;;7.35;;
47239;SDS011;32978;53.586;10.052;2022-08-21T01:02:29;14.37;;;7.60;;
47239;SDS011;32978;53.586;10.052;2022-08-21T01:07:26;11.57;;;6.68;;
47239;SDS011;32978;53.586;10.052;2022-08-21T01:12:22;10.38;;;5.63;;
47239;SDS011;32978;53.586;10.052;2022-08-21T01:17:19;11.20;;;6.55;;
47239;SDS011;32978;53.586;10.052;2022-08-21T01:22:16;10.90;;;5.88;;
47239;SDS011;32978;53.586;10.052;2022-08-21T01:27:12;9.38;;;5.68;;
47239;SDS011;32978;53.586;10.052;2022-08-21T01:32:10;7.97;;;4.68;;
47239;SDS011;32978;53.586;10.052;2022-08-21T01:37:07;9.05;;;5.00;;
47239;SDS011;32978;53.586;10.052;2022-08-21T01:42:04;10.75;;;5.10;;
47239;SDS011;32978;53.586;10.052;2022-08-21T01:47:01;7.75;;;4.38;;
47239;SDS011;32978;53.586;10.052;2022-08-21T01:51:57;9.48;;;5.28;;
47239;SDS011;32978;53.586;10.052;2022-08-21T01:56:54;8.77;;;4.35;;
47239;SDS011;32978;53.586;10.052;2022-08-21T02:01:51;7.90;;;3.92;;
47239;SDS011;32978;53.586;10.052;2022-08-21T02:06:50;9.23;;;4.75;;
47239;SDS011;32978;53.586;10.052;2022-08-21T02:11:46;7.75;;;3.67;;
47239;SDS011;32978;53.586;10.052;2022-08-21T02:16:43;10.23;;;4.80;;
47239;SDS011;32978;53.586;10.052;2022-08-21T02:21:40;10.30;;;4.30;;
47239;SDS011;32978;53.586;10.052;2022-08-21T02:26:37;8.80;;;4.35;;
47239;SDS011;32978;53.586;10.052;2022-08-21T02:31:33;9.02;;;4.53;;
47239;SDS011;32978;53.586;10.052;2022-08-21T02:36:30;8.13;;;4.18;;
47239;SDS011;32978;53.586;10.052;2022-08-21T02:41:26;8.98;;;5.25;;
47239;SDS011;32978;53.586;10.052;2022-08-21T02:46:22;7.55;;;4.28;;
47239;SDS011;32978;53.586;10.052;2022-08-21T02:51:19;10.73;;;5.32;;
47239;SDS011;32978;53.586;10.052;2022-08-21T02:56:17;8.57;;;4.50;;
47239;SDS011;32978;53.586;10.052;2022-08-21T03:01:13;7.85;;;4.80;;
47239;SDS011;32978;53.586;10.052;2022-08-21T03:06:11;9.68;;;4.60;;
47239;SDS011;32978;53.586;10.052;2022-08-21T03:11:08;8.27;;;4.43;;
47239;SDS011;32978;53.586;10.052;2022-08-21T03:16:06;9.90;;;4.40;;
47239;SDS011;32978;53.586;10.052;2022-08-21T03:21:06;8.35;;;4.20;;
47239;SDS011;32978;53.586;10.052;2022-08-21T03:26:02;10.50;;;4.18;;
47239;SDS011;32978;53.586;10.052;2022-08-21T03:30:58;9.38;;;4.25;;
47239;SDS011;32978;53.586;10.052;2022-08-21T03:35:59;10.77;;;3.85;;
47239;SDS011;32978;53.586;10.052;2022-08-21T03:40:56;6.90;;;3.95;;
47239;SDS011;32978;53.586;10.052;2022-08-21T03:45:53;6.70;;;3.28;;
47239;SDS011;32978;53.586;10.052;2022-08-21T03:50:51;9.23;;;4.00;;
47239;SDS011;32978;53.586;10.052;2022-08-21T03:55:48;8.40;;;3.90;;
47239;SDS011;32978;53.586;10.052;2022-08-21T04:00:46;7.53;;;3.83;;
47239;SDS011;32978;53.586;10.052;2022-08-21T04:05:42;10.38;;;4.03;;
47239;SDS011;32978;53.586;10.052;2022-08-21T04:10:41;8.18;;;3.30;;
47239;SDS011;32978;53.586;10.052;2022-08-21T04:15:39;6.88;;;3.85;;
47239;SDS011;32978;53.586;10.052;2022-08-21T04:20:37;7.47;;;3.60;;
47239;SDS011;32978;53.586;10.052;2022-08-21T04:25:33;9.35;;;3.55;;
47239;SDS011;32978;53.586;10.052;2022-08-21T04:30:29;7.53;;;4.30;;
47239;SDS011;32978;53.586;10.052;2022-08-21T04:35:27;6.88;;;3.33;;
47239;SDS011;32978;53.586;10.052;2022-08-21T04:40:24;6.22;;;3.50;;
47239;SDS011;32978;53.586;10.052;2022-08-21T04:50:18;7.97;;;3.80;;
47239;SDS011;32978;53.586;10.052;2022-08-21T04:55:15;6.60;;;3.63;;
47239;SDS011;32978;53.586;10.052;2022-08-21T05:00:12;6.78;;;4.13;;
47239;SDS011;32978;53.586;10.052;2022-08-21T05:05:09;7.32;;;3.90;;
47239;SDS011;32978;53.586;10.052;2022-08-21T05:10:06;7.15;;;3.28;;
47239;SDS011;32978;53.586;10.052;2022-08-21T05:15:04;6.32;;;3.28;;
47239;SDS011;32978;53.586;10.052;2022-08-21T05:20:00;8.05;;;2.75;;
47239;SDS011;32978;53.586;10.052;2022-08-21T05:24:57;5.97;;;2.90;;
47239;SDS011;32978;53.586;10.052;2022-08-21T05:29:54;6.80;;;2.63;;
47239;SDS011;32978;53.586;10.052;2022-08-21T05:34:51;9.57;;;3.75;;
47239;SDS011;32978;53.586;10.052;2022-08-21T05:39:47;6.78;;;3.15;;
47239;SDS011;32978;53.586;10.052;2022-08-21T05:45:03;9.52;;;3.17;;
47239;SDS011;32978;53.586;10.052;2022-08-21T05:50:00;4.68;;;2.70;;
47239;SDS011;32978;53.586;10.052;2022-08-21T05:54:56;7.75;;;3.08;;
47239;SDS011;32978;53.586;10.052;2022-08-21T05:59:52;6.97;;;2.67;;
47239;SDS011;32978;53.586;10.052;2022-08-21T06:04:49;9.20;;;4.38;;
47239;SDS011;32978;53.586;10.052;2022-08-21T06:09:45;7.65;;;2.58;;
47239;SDS011;32978;53.586;10.052;2022-08-21T06:14:42;6.78;;;3.00;;
47239;SDS011;32978;53.586;10.052;2022-08-21T06:19:38;6.95;;;2.78;;
47239;SDS011;32978;53.586;10.052;2022-08-21T06:24:35;6.63;;;2.72;;
47239;SDS011;32978;53.586;10.052;2022-08-21T06:29:32;9.10;;;3.60;;
47239;SDS011;32978;53.586;10.052;2022-08-21T06:34:40;9.05;;;3.60;;
47239;SDS011;32978;53.586;10.052;2022-08-21T06:39:36;5.95;;;3.90;;
47239;SDS011;32978;53.586;10.052;2022-08-21T06:44:39;7.53;;;3.28;;
47239;SDS011;32978;53.586;10.052;2022-08-21T06:49:37;6.18;;;3.20;;
47239;SDS011;32978;53.586;10.052;2022-08-21T06:54:33;7.05;;;3.88;;
47239;SDS011;32978;53.586;10.052;2022-08-21T06:59:30;5.60;;;3.53;;
47239;SDS011;32978;53.586;10.052;2022-08-21T07:04:26;4.90;;;3.70;;
47239;SDS011;32978;53.586;10.052;2022-08-21T07:09:22;4.28;;;3.67;;
47239;SDS011;32978;53.586;10.052;2022-08-21T07:14:20;7.80;;;3.72;;
47239;SDS011;32978;53.586;10.052;2022-08-21T07:19:16;6.68;;;4.32;;
47239;SDS011;32978;53.586;10.052;2022-08-21T07:24:13;7.05;;;4.45;;
47239;SDS011;32978;53.586;10.052;2022-08-21T07:29:09;7.03;;;4.63;;
47239;SDS011;32978;53.586;10.052;2022-08-21T07:34:06;6.28;;;4.82;;
47239;SDS011;32978;53.586;10.052;2022-08-21T07:39:02;6.28;;;4.40;;
47239;SDS011;32978;53.586;10.052;2022-08-21T07:43:59;7.03;;;4.55;;
47239;SDS011;32978;53.586;10.052;2022-08-21T07:48:55;7.65;;;4.60;;
47239;SDS011;32978;53.586;10.052;2022-08-21T07:53:52;5.32;;;4.82;;
47239;SDS011;32978;53.586;10.052;2022-08-21T07:58:49;6.55;;;4.70;;
47239;SDS011;32978;53.586;10.052;2022-08-21T08:03:46;7.07;;;5.13;;
47239;SDS011;32978;53.586;10.052;2022-08-21T08:08:42;5.85;;;5.22;;
47239;SDS011;32978;53.586;10.052;2022-08-21T08:13:43;6.15;;;5.40;;
47239;SDS011;32978;53.586;10.052;2022-08-21T08:18:39;9.40;;;5.55;;
47239;SDS011;32978;53.586;10.052;2022-08-21T08:23:38;7.95;;;5.50;;
47239;SDS011;32978;53.586;10.052;2022-08-21T08:28:34;5.90;;;5.30;;
47239;SDS011;32978;53.586;10.052;2022-08-21T08:33:31;7.38;;;5.45;;
47239;SDS011;32978;53.586;10.052;2022-08-21T08:38:27;6.03;;;5.43;;
47239;SDS011;32978;53.586;10.052;2022-08-21T08:43:24;8.80;;;5.78;;
47239;SDS011;32978;53.586;10.052;2022-08-21T08:53:58;11.07;;;6.20;;
47239;SDS011;32978;53.586;10.052;2022-08-21T08:58:52;10.38;;;6.53;;
47239;SDS011;32978;53.586;10.052;2022-08-21T09:03:49;10.45;;;6.28;;
47239;SDS011;32978;53.586;10.052;2022-08-21T09:24:18;10.90;;;6.57;;
47239;SDS011;32978;53.586;10.052;2022-08-21T09:29:19;8.05;;;6.25;;
47239;SDS011;32978;53.586;10.052;2022-08-21T09:34:23;9.15;;;6.43;;
47239;SDS011;32978;53.586;10.052;2022-08-21T09:44:24;9.25;;;6.95;;
47239;SDS011;32978;53.586;10.052;2022-08-21T09:49:28;7.23;;;6.10;;
47239;SDS011;32978;53.586;10.052;2022-08-21T09:54:26;11.05;;;7.18;;
47239;SDS011;32978;53.586;10.052;2022-08-21T09:59:30;11.85;;;7.45;;
47239;SDS011;32978;53.586;10.052;2022-08-21T10:04:33;8.55;;;7.47;;
47239;SDS011;32978;53.586;10.052;2022-08-21T10:09:30;8.60;;;7.63;;
47239;SDS011;32978;53.586;10.052;2022-08-21T10:24:28;8.45;;;6.70;;
47239;SDS011;32978;53.586;10.052;2022-08-21T10:29:39;14.48;;;8.60;;
47239;SDS011;32978;53.586;10.052;2022-08-21T10:49:59;12.15;;;6.10;;
47239;SDS011;32978;53.586;10.052;2022-08-21T11:00:06;7.78;;;6.15;;
47239;SDS011;32978;53.586;10.052;2022-08-21T11:05:17;8.55;;;5.93;;
47239;SDS011;32978;53.586;10.052;2022-08-21T11:20:29;7.30;;;6.28;;
47239;SDS011;32978;53.586;10.052;2022-08-21T11:30:24;9.77;;;5.95;;
47239;SDS011;32978;53.586;10.052;2022-08-21T11:35:30;7.50;;;5.65;;
47239;SDS011;32978;53.586;10.052;2022-08-21T11:50:37;11.05;;;6.20;;
47239;SDS011;32978;53.586;10.052;2022-08-21T11:55:36;6.47;;;5.88;;
47239;SDS011;32978;53.586;10.052;2022-08-21T12:00:57;6.47;;;5.35;;
47239;SDS011;32978;53.586;10.052;2022-08-21T12:05:53;11.35;;;6.05;;
47239;SDS011;32978;53.586;10.052;2022-08-21T12:10:59;7.20;;;6.50;;
47239;SDS011;32978;53.586;10.052;2022-08-21T12:26:23;5.43;;;4.93;;
47239;SDS011;32978;53.586;10.052;2022-08-21T12:31:21;8.38;;;5.57;;
47239;SDS011;32978;53.586;10.052;2022-08-21T12:36:19;8.60;;;5.57;;
47239;SDS011;32978;53.586;10.052;2022-08-21T12:41:21;5.72;;;5.05;;
47239;SDS011;32978;53.586;10.052;2022-08-21T12:46:21;5.53;;;5.03;;
47239;SDS011;32978;53.586;10.052;2022-08-21T12:51:31;6.45;;;5.10;;
47239;SDS011;32978;53.586;10.052;2022-08-21T12:56:33;5.53;;;5.03;;
47239;SDS011;32978;53.586;10.052;2022-08-21T13:01:31;7.57;;;5.30;;
47239;SDS011;32978;53.586;10.052;2022-08-21T13:06:43;5.97;;;5.40;;
47239;SDS011;32978;53.586;10.052;2022-08-21T13:11:41;5.40;;;4.90;;
47239;SDS011;32978;53.586;10.052;2022-08-21T13:16:38;6.13;;;5.30;;
47239;SDS011;32978;53.586;10.052;2022-08-21T13:21:39;5.78;;;5.28;;
47239;SDS011;32978;53.586;10.052;2022-08-21T13:26:36;5.60;;;5.07;;
47239;SDS011;32978;53.586;10.052;2022-08-21T13:31:32;5.47;;;4.97;;
47239;SDS011;32978;53.586;10.052;2022-08-21T13:36:31;8.32;;;4.90;;
47239;SDS011;32978;53.586;10.052;2022-08-21T13:41:29;5.55;;;4.78;;
47239;SDS011;32978;53.586;10.052;2022-08-21T13:46:28;4.90;;;4.50;;
47239;SDS011;32978;53.586;10.052;2022-08-21T13:51:25;6.30;;;4.80;;
47239;SDS011;32978;53.586;10.052;2022-08-21T13:56:23;6.53;;;5.07;;
47239;SDS011;32978;53.586;10.052;2022-08-21T14:01:23;6.07;;;5.00;;
47239;SDS011;32978;53.586;10.052;2022-08-21T14:06:23;6.35;;;4.72;;
47239;SDS011;32978;53.586;10.052;2022-08-21T14:11:20;7.25;;;5.10;;
47239;SDS011;32978;53.586;10.052;2022-08-21T14:21:30;7.22;;;5.80;;
47239;SDS011;32978;53.586;10.052;2022-08-21T14:26:27;5.45;;;4.53;;
47239;SDS011;32978;53.586;10.052;2022-08-21T14:31:27;5.72;;;4.95;;
47239;SDS011;32978;53.586;10.052;2022-08-21T14:36:26;5.53;;;5.03;;
47239;SDS011;32978;53.586;10.052;2022-08-21T14:41:24;9.65;;;5.70;;
47239;SDS011;32978;53.586;10.052;2022-08-21T14:46:24;6.60;;;5.68;;
47239;SDS011;32978;53.586;10.052;2022-08-21T14:51:21;6.72;;;4.97;;
47239;SDS011;32978;53.586;10.052;2022-08-21T14:56:17;6.05;;;4.22;;
47239;SDS011;32978;53.586;10.052;2022-08-21T15:01:14;6.57;;;4.57;;
47239;SDS011;32978;53.586;10.052;2022-08-21T15:06:11;5.97;;;4.45;;
47239;SDS011;32978;53.586;10.052;2022-08-21T15:11:08;6.30;;;4.65;;
47239;SDS011;32978;53.586;10.052;2022-08-21T15:16:13;4.82;;;4.43;;
47239;SDS011;32978;53.586;10.052;2022-08-21T15:21:10;5.30;;;4.00;;
47239;SDS011;32978;53.586;10.052;2022-08-21T15:26:06;5.32;;;4.82;;
47239;SDS011;32978;53.586;10.052;2022-08-21T15:31:02;7.22;;;4.78;;
47239;SDS011;32978;53.586;10.052;2022-08-21T15:35:59;9.30;;;4.47;;
47239;SDS011;32978;53.586;10.052;2022-08-21T15:40:55;6.15;;;4.70;;
47239;SDS011;32978;53.586;10.052;2022-08-21T15:45:51;6.45;;;4.70;;
47239;SDS011;32978;53.586;10.052;2022-08-21T15:50:48;6.20;;;4.32;;
47239;SDS011;32978;53.586;10.052;2022-08-21T15:55:44;5.03;;;4.47;;
47239;SDS011;32978;53.586;10.052;2022-08-21T16:00:41;7.30;;;4.82;;
47239;SDS011;32978;53.586;10.052;2022-08-21T16:05:40;5.82;;;4.90;;
47239;SDS011;32978;53.586;10.052;2022-08-21T16:10:36;5.15;;;4.75;;
47239;SDS011;32978;53.586;10.052;2022-08-21T16:15:33;6.85;;;5.13;;
47239;SDS011;32978;53.586;10.052;2022-08-21T16:20:30;5.50;;;4.70;;
47239;SDS011;32978;53.586;10.052;2022-08-21T16:25:26;6.03;;;5.00;;
47239;SDS011;32978;53.586;10.052;2022-08-21T16:30:23;5.60;;;4.85;;
47239;SDS011;32978;53.586;10.052;2022-08-21T16:35:20;6.70;;;5.03;;
47239;SDS011;32978;53.586;10.052;2022-08-21T16:40:16;5.45;;;4.85;;
47239;SDS011;32978;53.586;10.052;2022-08-21T16:45:14;5.72;;;5.10;;
47239;SDS011;32978;53.586;10.052;2022-08-21T16:50:15;6.60;;;4.65;;
47239;SDS011;32978;53.586;10.052;2022-08-21T16:55:12;6.00;;;5.00;;
47239;SDS011;32978;53.586;10.052;2022-08-21T17:00:08;7.15;;;5.38;;
47239;SDS011;32978;53.586;10.052;2022-08-21T17:05:08;4.90;;;4.40;;
47239;SDS011;32978;53.586;10.052;2022-08-21T17:15:28;6.97;;;5.03;;
47239;SDS011;32978;53.586;10.052;2022-08-21T17:20:22;6.57;;;5.90;;
47239;SDS011;32978;53.586;10.052;2022-08-21T17:25:19;6.18;;;4.82;;
47239;SDS011;32978;53.586;10.052;2022-08-21T17:30:16;5.32;;;4.50;;
47239;SDS011;32978;53.586;10.052;2022-08-21T17:35:12;8.73;;;6.07;;
47239;SDS011;32978;53.586;10.052;2022-08-21T17:40:10;6.50;;;4.75;;
47239;SDS011;32978;53.586;10.052;2022-08-21T17:45:09;8.73;;;5.25;;
47239;SDS011;32978;53.586;10.052;2022-08-21T17:50:06;8.98;;;5.57;;
47239;SDS011;32978;53.586;10.052;2022-08-21T17:55:03;6.20;;;5.07;;
47239;SDS011;32978;53.586;10.052;2022-08-21T18:00:00;9.45;;;4.72;;
47239;SDS011;32978;53.586;10.052;2022-08-21T18:04:58;7.82;;;4.93;;
47239;SDS011;32978;53.586;10.052;2022-08-21T18:09:54;8.18;;;5.90;;
47239;SDS011;32978;53.586;10.052;2022-08-21T18:14:52;7.25;;;5.15;;
47239;SDS011;32978;53.586;10.052;2022-08-21T18:19:48;7.53;;;6.00;;
47239;SDS011;32978;53.586;10.052;2022-08-21T18:24:45;8.00;;;5.57;;
47239;SDS011;32978;53.586;10.052;2022-08-21T18:29:41;7.90;;;5.18;;
47239;SDS011;32978;53.586;10.052;2022-08-21T18:34:42;8.87;;;4.70;;
47239;SDS011;32978;53.586;10.052;2022-08-21T18:39:40;9.90;;;5.10;;
47239;SDS011;32978;53.586;10.052;2022-08-21T18:44:37;6.47;;;4.88;;
47239;SDS011;32978;53.586;10.052;2022-08-21T18:49:34;13.10;;;5.78;;
47239;SDS011;32978;53.586;10.052;2022-08-21T18:54:31;10.27;;;5.72;;
47239;SDS011;32978;53.586;10.052;2022-08-21T18:59:27;8.85;;;5.07;;
47239;SDS011;32978;53.586;10.052;2022-08-21T19:04:25;6.82;;;4.53;;
47239;SDS011;32978;53.586;10.052;2022-08-21T19:09:40;9.60;;;4.82;;
47239;SDS011;32978;53.586;10.052;2022-08-21T19:14:37;7.95;;;5.25;;
47239;SDS011;32978;53.586;10.052;2022-08-21T19:19:34;6.68;;;4.50;;
47239;SDS011;32978;53.586;10.052;2022-08-21T19:24:34;7.68;;;5.20;;
47239;SDS011;32978;53.586;10.052;2022-08-21T19:29:31;9.57;;;5.70;;
47239;SDS011;32978;53.586;10.052;2022-08-21T19:34:30;8.27;;;4.70;;
47239;SDS011;32978;53.586;10.052;2022-08-21T19:39:27;9.90;;;4.78;;
47239;SDS011;32978;53.586;10.052;2022-08-21T19:44:24;11.00;;;5.70;;
47239;SDS011;32978;53.586;10.052;2022-08-21T19:49:23;6.72;;;5.13;;
47239;SDS011;32978;53.586;10.052;2022-08-21T19:54:25;7.28;;;5.10;;
47239;SDS011;32978;53.586;10.052;2022-08-21T19:59:22;8.45;;;4.60;;
47239;SDS011;32978;53.586;10.052;2022-08-21T20:04:20;10.68;;;5.40;;
47239;SDS011;32978;53.586;10.052;2022-08-21T20:09:17;8.15;;;5.40;;
47239;SDS011;32978;53.586;10.052;2022-08-21T20:14:16;10.13;;;5.68;;
47239;SDS011;32978;53.586;10.052;2022-08-21T20:19:13;12.00;;;4.43;;
47239;SDS011;32978;53.586;10.052;2022-08-21T20:24:10;11.40;;;5.28;;
47239;SDS011;32978;53.586;10.052;2022-08-21T20:29:10;7.40;;;4.47;;
47239;SDS011;32978;53.586;10.052;2022-08-21T20:34:06;12.95;;;5.57;;
47239;SDS011;32978;53.586;10.052;2022-08-21T20:39:03;10.20;;;4.82;;
47239;SDS011;32978;53.586;10.052;2022-08-21T20:44:06;11.90;;;4.65;;
47239;SDS011;32978;53.586;10.052;2022-08-21T20:49:09;7.93;;;4.00;;
47239;SDS011;32978;53.586;10.052;2022-08-21T20:54:07;8.05;;;4.13;;
47239;SDS011;32978;53.586;10.052;2022-08-21T21:04:42;9.75;;;4.20;;
47239;SDS011;32978;53.586;10.052;2022-08-21T21:09:43;10.70;;;4.00;;
47239;SDS011;32978;53.586;10.052;2022-08-21T21:14:42;8.65;;;4.03;;
47239;SDS011;32978;53.586;10.052;2022-08-21T21:20:16;6.03;;;3.90;;
47239;SDS011;32978;53.586;10.052;2022-08-21T21:25:58;10.27;;;3.90;;
47239;SDS011;32978;53.586;10.052;2022-08-21T21:30:37;7.70;;;4.20;;
47239;SDS011;32978;53.586;10.052;2022-08-21T21:35:46;7.88;;;3.75;;
47239;SDS011;32978;53.586;10.052;2022-08-21T21:51:13;8.15;;;4.18;;
47239;SDS011;32978;53.586;10.052;2022-08-21T21:56:20;8.18;;;4.15;;
47239;SDS011;32978;53.586;10.052;2022-08-21T22:06:47;11.45;;;4.43;;
47239;SDS011;32978;53.586;10.052;2022-08-21T22:16:36;6.93;;;4.05;;
47239;SDS011;32978;53.586;10.052;2022-08-21T22:21:34;8.95;;;4.20;;
47239;SDS011;32978;53.586;10.052;2022-08-21T22:26:36;8.00;;;3.60;;
47239;SDS011;32978;53.586;10.052;2022-08-21T22:31:33;8.20;;;4.07;;
47239;SDS011;32978;53.586;10.052;2022-08-21T22:36:31;9.38;;;3.92;;
47239;SDS011;32978;53.586;10.052;2022-08-21T22:41:29;9.98;;;3.97;;
47239;SDS011;32978;53.586;10.052;2022-08-21T22:46:28;9.90;;;4.05;;
47239;SDS011;32978;53.586;10.052;2022-08-21T22:51:27;9.80;;;4.03;;
47239;SDS011;32978;53.586;10.052;2022-08-21T23:06:30;13.70;;;4.38;;
47239;SDS011;32978;53.586;10.052;2022-08-21T23:11:35;6.65;;;3.58;;
47239;SDS011;32978;53.586;10.052;2022-08-21T23:26:31;12.77;;;3.90;;
47239;SDS011;32978;53.586;10.052;2022-08-21T23:31:40;9.55;;;3.33;;
47239;SDS011;32978;53.586;10.052;2022-08-21T23:42:17;6.93;;;3.00;;
47239;SDS011;32978;53.586;10.052;2022-08-21T23:47:33;7.60;;;3.33;;
47239;SDS011;32978;53.586;10.052;2022-08-21T23:52:39;8.10;;;3.67;;
47239;SDS011;32978;53.586;10.052;2022-08-21T23:57:47;7.00;;;3.33;;
